createdAt,value
2017-10-10T00:01:57.261Z,65.90
2017-10-10T00:04:24.894Z,65.80
2017-10-10T00:06:52.493Z,65.90
2017-10-10T00:09:20.305Z,65.70
2017-10-10T00:11:47.885Z,65.80
2017-10-10T00:14:15.493Z,65.80
2017-10-10T00:16:43.050Z,65.90
2017-10-10T00:19:10.979Z,65.80
2017-10-10T00:21:38.589Z,65.70
2017-10-10T00:24:06.167Z,65.90
2017-10-10T00:26:34.542Z,65.90
2017-10-10T00:29:02.098Z,65.80
2017-10-10T00:31:29.693Z,65.80
2017-10-10T00:33:57.300Z,65.80
2017-10-10T00:36:24.882Z,65.80
2017-10-10T00:38:53.016Z,65.70
2017-10-10T00:41:20.677Z,65.80
2017-10-10T00:43:48.257Z,65.80
2017-10-10T00:46:15.814Z,65.70
2017-10-10T00:48:43.445Z,65.50
2017-10-10T00:51:11.053Z,65.50
2017-10-10T00:53:39.234Z,65.70
2017-10-10T00:56:06.877Z,65.50
2017-10-10T00:58:34.505Z,65.60
2017-10-10T01:01:02.129Z,65.70
2017-10-10T01:03:30.341Z,65.60
2017-10-10T01:05:57.897Z,65.70
2017-10-10T01:08:25.481Z,65.80
2017-10-10T01:10:53.101Z,65.70
2017-10-10T01:13:20.713Z,65.60
2017-10-10T01:15:48.319Z,65.50
2017-10-10T01:18:24.156Z,65.50
2017-10-10T01:20:59.608Z,65.40
2017-10-10T01:23:32.805Z,65.40
2017-10-10T01:26:01.150Z,65.40
2017-10-10T01:28:28.753Z,66.20
2017-10-10T01:30:56.357Z,65.50
2017-10-10T01:33:24.935Z,65.40
2017-10-10T01:35:52.593Z,65.50
2017-10-10T01:38:20.989Z,65.40
2017-10-10T01:40:48.641Z,65.40
2017-10-10T01:43:16.241Z,65.70
2017-10-10T01:45:43.869Z,65.30
2017-10-10T01:48:11.501Z,65.40
2017-10-10T01:50:39.160Z,65.20
2017-10-10T01:53:06.757Z,65.30
2017-10-10T01:55:34.354Z,65.30
2017-10-10T01:58:01.958Z,65.30
2017-10-10T02:00:29.561Z,65.20
2017-10-10T02:02:57.204Z,65.30
2017-10-10T02:05:24.817Z,65.30
2017-10-10T02:07:52.413Z,65.30
2017-10-10T02:10:20.042Z,65.00
2017-10-10T02:12:47.600Z,65.00
2017-10-10T02:15:15.959Z,65.00
2017-10-10T02:17:43.577Z,64.90
2017-10-10T02:20:11.177Z,65.00
2017-10-10T02:22:38.836Z,65.10
2017-10-10T02:25:06.617Z,64.90
2017-10-10T02:27:34.246Z,65.00
2017-10-10T02:30:01.822Z,65.00
2017-10-10T02:32:30.206Z,64.90
2017-10-10T02:34:57.781Z,65.00
2017-10-10T02:37:26.127Z,65.00
2017-10-10T02:39:53.725Z,64.80
2017-10-10T02:42:22.265Z,64.80
2017-10-10T02:44:49.828Z,64.70
2017-10-10T02:47:19.134Z,64.80
2017-10-10T02:49:46.686Z,64.90
2017-10-10T02:52:14.257Z,64.80
2017-10-10T02:54:42.270Z,64.90
2017-10-10T02:57:09.826Z,64.70
2017-10-10T02:59:37.402Z,64.70
2017-10-10T03:02:05.773Z,64.80
2017-10-10T03:04:33.332Z,64.60
2017-10-10T03:07:01.649Z,64.60
2017-10-10T03:09:29.249Z,64.60
2017-10-10T03:11:56.836Z,64.70
2017-10-10T03:14:24.433Z,64.70
2017-10-10T03:16:52.541Z,64.60
2017-10-10T03:19:20.117Z,64.60
2017-10-10T03:21:48.459Z,64.60
2017-10-10T03:24:16.041Z,64.40
2017-10-10T03:26:46.127Z,64.60
2017-10-10T03:29:13.705Z,64.60
2017-10-10T03:31:41.322Z,64.60
2017-10-10T03:34:10.448Z,64.60
2017-10-10T03:39:32.450Z,64.60
2017-10-10T03:42:00.285Z,64.50
2017-10-10T03:44:27.889Z,64.60
2017-10-10T03:46:55.888Z,64.60
2017-10-10T03:49:23.461Z,64.50
2017-10-10T03:51:51.064Z,64.40
2017-10-10T03:54:19.137Z,64.50
2017-10-10T03:56:46.694Z,64.50
2017-10-10T03:59:14.277Z,64.40
2017-10-10T04:01:42.673Z,64.50
2017-10-10T04:04:10.253Z,64.50
2017-10-10T04:06:38.105Z,64.40
2017-10-10T04:09:05.703Z,64.40
2017-10-10T04:11:33.308Z,64.40
2017-10-10T04:14:00.913Z,64.30
2017-10-10T04:16:28.469Z,64.30
2017-10-10T04:18:56.046Z,64.30
2017-10-10T04:21:24.421Z,64.30
2017-10-10T04:23:52.024Z,64.30
2017-10-10T04:26:20.045Z,64.20
2017-10-10T04:28:47.625Z,64.30
2017-10-10T04:31:15.197Z,64.10
2017-10-10T04:33:42.785Z,64.00
2017-10-10T04:36:10.409Z,64.00
2017-10-10T04:38:37.992Z,63.90
2017-10-10T04:41:05.617Z,60.90
2017-10-10T04:43:33.224Z,59.10
2017-10-10T04:46:00.785Z,58.90
2017-10-10T04:48:28.344Z,57.70
2017-10-10T04:50:55.948Z,57.20
2017-10-10T04:53:23.508Z,57.10
2017-10-10T04:55:51.858Z,59.10
2017-10-10T04:58:19.502Z,59.10
2017-10-10T05:00:47.088Z,59.90
2017-10-10T05:03:15.317Z,60.60
2017-10-10T05:05:43.645Z,60.60
2017-10-10T05:08:11.197Z,60.80
2017-10-10T05:10:38.749Z,59.20
2017-10-10T05:13:06.332Z,59.30
2017-10-10T05:15:33.937Z,58.20
2017-10-10T05:18:01.546Z,57.60
2017-10-10T05:20:29.174Z,57.50
2017-10-10T05:22:57.290Z,57.40
2017-10-10T05:25:24.901Z,57.30
2017-10-10T05:27:52.525Z,57.20
2017-10-10T05:30:20.162Z,57.10
2017-10-10T05:32:47.785Z,57.00
2017-10-10T05:35:15.450Z,57.10
2017-10-10T05:37:43.029Z,56.90
2017-10-10T05:40:10.614Z,56.80
2017-10-10T05:42:38.253Z,56.70
2017-10-10T05:45:05.837Z,57.10
2017-10-10T05:47:33.569Z,57.70
2017-10-10T05:50:01.148Z,58.30
2017-10-10T05:52:28.745Z,58.70
2017-10-10T05:54:56.330Z,58.90
2017-10-10T05:57:23.943Z,59.10
2017-10-10T05:59:51.536Z,59.20
2017-10-10T06:02:19.120Z,59.30
2017-10-10T06:04:46.705Z,59.40
2017-10-10T06:07:14.285Z,59.50
2017-10-10T06:09:41.892Z,59.40
2017-10-10T06:12:09.486Z,59.40
2017-10-10T06:14:37.069Z,59.40
2017-10-10T06:17:04.649Z,59.60
2017-10-10T06:19:32.234Z,59.60
2017-10-10T06:21:59.829Z,59.70
2017-10-10T06:24:27.417Z,59.80
2017-10-10T06:26:55.037Z,59.90
2017-10-10T06:29:22.649Z,59.80
2017-10-10T06:31:50.326Z,59.70
2017-10-10T06:34:18.074Z,59.60
2017-10-10T06:36:45.641Z,59.60
2017-10-10T06:39:13.205Z,59.60
2017-10-10T06:41:40.809Z,59.50
2017-10-10T06:44:08.374Z,59.40
2017-10-10T06:46:35.958Z,59.40
2017-10-10T06:49:03.553Z,59.40
2017-10-10T06:51:31.160Z,59.40
2017-10-10T06:53:58.752Z,59.40
2017-10-10T06:56:26.347Z,59.30
2017-10-10T06:58:53.929Z,59.30
2017-10-10T07:01:21.517Z,59.30
2017-10-10T07:03:49.129Z,59.30
2017-10-10T07:06:16.713Z,59.30
2017-10-10T07:08:44.462Z,59.30
2017-10-10T07:11:12.041Z,59.20
2017-10-10T07:13:39.625Z,59.20
2017-10-10T07:16:07.214Z,59.20
2017-10-10T07:18:35.561Z,59.20
2017-10-10T07:21:03.121Z,59.20
2017-10-10T07:23:30.704Z,59.10
2017-10-10T07:25:58.289Z,59.10
2017-10-10T07:28:25.845Z,59.20
2017-10-10T07:30:53.405Z,59.10
2017-10-10T07:33:21.015Z,59.20
2017-10-10T07:35:49.384Z,59.10
2017-10-10T07:38:16.969Z,59.10
2017-10-10T07:40:44.584Z,59.10
2017-10-10T07:43:12.186Z,59.10
2017-10-10T07:45:39.773Z,59.10
2017-10-10T07:48:08.910Z,59.20
2017-10-10T07:50:36.477Z,59.10
2017-10-10T07:53:04.085Z,59.20
2017-10-10T07:55:31.701Z,59.10
2017-10-10T07:57:59.261Z,59.10
2017-10-10T08:00:26.825Z,59.10
2017-10-10T08:02:54.414Z,59.80
2017-10-10T08:05:21.974Z,59.10
2017-10-10T08:07:49.535Z,59.10
2017-10-10T08:10:17.126Z,59.00
2017-10-10T08:12:44.686Z,59.00
2017-10-10T08:15:12.274Z,59.10
2017-10-10T08:17:39.913Z,59.10
2017-10-10T08:20:07.503Z,59.00
2017-10-10T08:22:35.069Z,59.00
2017-10-10T08:25:02.654Z,59.00
2017-10-10T08:27:30.233Z,59.00
2017-10-10T08:29:58.033Z,59.00
2017-10-10T08:32:26.049Z,59.00
2017-10-10T08:34:53.645Z,59.00
2017-10-10T08:37:21.252Z,59.00
2017-10-10T08:39:48.877Z,59.00
2017-10-10T08:42:16.469Z,59.60
2017-10-10T08:44:44.849Z,59.40
2017-10-10T08:47:12.761Z,58.90
2017-10-10T08:49:40.321Z,58.90
2017-10-10T08:52:07.907Z,58.90
2017-10-10T08:54:35.492Z,58.90
2017-10-10T08:57:03.077Z,58.90
2017-10-10T08:59:30.688Z,58.90
2017-10-10T09:01:58.301Z,58.80
2017-10-10T09:04:25.890Z,58.80
2017-10-10T09:06:53.481Z,58.80
2017-10-10T09:09:21.089Z,58.80
2017-10-10T09:11:48.652Z,58.80
2017-10-10T09:14:16.857Z,58.80
2017-10-10T09:16:44.441Z,58.80
2017-10-10T09:19:12.017Z,58.80
2017-10-10T09:21:39.585Z,58.80
2017-10-10T09:24:07.200Z,58.80
2017-10-10T09:26:34.765Z,58.90
2017-10-10T09:29:02.328Z,58.80
2017-10-10T09:31:29.933Z,58.80
2017-10-10T09:33:57.493Z,58.80
2017-10-10T09:36:25.049Z,58.70
2017-10-10T09:38:52.641Z,58.80
2017-10-10T09:41:20.201Z,58.70
2017-10-10T09:43:47.758Z,58.70
2017-10-10T09:46:15.342Z,58.70
2017-10-10T09:48:42.921Z,58.80
2017-10-10T09:51:10.489Z,58.70
2017-10-10T09:53:38.093Z,58.70
2017-10-10T09:56:05.654Z,58.70
2017-10-10T09:58:33.234Z,58.70
2017-10-10T10:01:00.821Z,58.60
2017-10-10T10:03:28.390Z,58.60
2017-10-10T10:05:55.969Z,58.60
2017-10-10T10:08:23.633Z,58.60
2017-10-10T10:10:52.009Z,58.60
2017-10-10T10:13:19.622Z,58.60
2017-10-10T10:15:47.213Z,58.60
2017-10-10T10:18:14.781Z,58.70
2017-10-10T10:20:42.338Z,58.50
2017-10-10T10:23:09.957Z,58.50
2017-10-10T10:25:37.573Z,58.60
2017-10-10T10:28:05.145Z,58.50
2017-10-10T10:30:32.757Z,58.60
2017-10-10T10:33:00.314Z,58.60
2017-10-10T10:35:27.871Z,58.50
2017-10-10T10:37:55.456Z,58.60
2017-10-10T10:40:23.001Z,58.60
2017-10-10T10:42:50.539Z,58.60
2017-10-10T10:45:18.099Z,58.50
2017-10-10T10:47:45.641Z,58.50
2017-10-10T10:50:13.174Z,59.10
2017-10-10T10:52:40.757Z,58.50
2017-10-10T10:55:08.317Z,58.60
2017-10-10T10:57:36.214Z,58.50
2017-10-10T11:00:03.814Z,58.40
2017-10-10T11:02:31.421Z,58.40
2017-10-10T11:04:58.981Z,58.40
2017-10-10T11:07:26.589Z,58.50
2017-10-10T11:09:54.149Z,58.40
2017-10-10T11:12:22.495Z,58.50
2017-10-10T11:14:50.140Z,58.40
2017-10-10T11:17:17.712Z,58.40
2017-10-10T11:19:45.294Z,59.20
2017-10-10T11:22:12.929Z,58.40
2017-10-10T11:24:40.506Z,58.50
2017-10-10T11:27:08.086Z,58.40
2017-10-10T11:29:35.701Z,58.30
2017-10-10T11:32:03.312Z,57.90
2017-10-10T11:34:31.658Z,58.30
2017-10-10T11:36:59.249Z,58.30
2017-10-10T11:39:27.581Z,58.40
2017-10-10T11:41:55.137Z,58.40
2017-10-10T11:44:22.725Z,58.30
2017-10-10T11:46:50.277Z,58.00
2017-10-10T11:49:17.922Z,57.80
2017-10-10T11:51:45.537Z,58.00
2017-10-10T11:54:13.125Z,57.80
2017-10-10T11:56:40.713Z,58.10
2017-10-10T11:59:08.301Z,57.60
2017-10-10T12:01:35.863Z,57.60
2017-10-10T12:04:04.221Z,58.10
2017-10-10T12:06:31.833Z,58.10
2017-10-10T12:08:59.427Z,58.00
2017-10-10T12:11:27.012Z,58.10
2017-10-10T12:13:54.621Z,58.00
2017-10-10T12:16:22.183Z,58.00
2017-10-10T12:18:49.740Z,58.00
2017-10-10T12:21:17.327Z,58.00
2017-10-10T12:23:44.918Z,58.10
2017-10-10T12:26:12.523Z,58.10
2017-10-10T12:28:40.391Z,58.10
2017-10-10T12:31:07.981Z,58.20
2017-10-10T12:33:36.521Z,58.10
2017-10-10T12:36:04.213Z,58.10
2017-10-10T12:38:31.779Z,58.10
2017-10-10T12:40:59.339Z,58.10
2017-10-10T12:43:26.925Z,58.10
2017-10-10T12:45:54.486Z,58.00
2017-10-10T12:48:22.073Z,58.00
2017-10-10T12:50:49.714Z,57.90
2017-10-10T12:53:17.312Z,57.70
2017-10-10T12:55:44.877Z,57.70
2017-10-10T12:58:12.802Z,57.70
2017-10-10T13:00:40.367Z,57.70
2017-10-10T13:03:07.935Z,57.70
2017-10-10T13:05:35.521Z,57.70
2017-10-10T13:08:03.102Z,57.60
2017-10-10T13:10:30.671Z,57.70
2017-10-10T13:12:58.294Z,57.70
2017-10-10T13:15:25.861Z,57.80
2017-10-10T13:17:53.416Z,57.70
2017-10-10T13:20:21.025Z,57.90
2017-10-10T13:22:48.598Z,57.80
2017-10-10T13:25:16.157Z,57.80
2017-10-10T13:27:43.762Z,57.80
2017-10-10T13:30:11.363Z,57.90
2017-10-10T13:32:38.941Z,57.90
2017-10-10T13:35:06.601Z,57.90
2017-10-10T13:37:34.221Z,57.90
2017-10-10T13:40:01.827Z,58.10
2017-10-10T13:42:29.413Z,58.00
2017-10-10T13:44:57.001Z,58.00
2017-10-10T13:47:24.561Z,58.10
2017-10-10T13:49:52.170Z,58.10
2017-10-10T13:52:20.511Z,58.10
2017-10-10T13:54:48.093Z,58.00
2017-10-10T13:57:15.677Z,58.00
2017-10-10T13:59:43.265Z,58.00
2017-10-10T14:02:10.845Z,58.00
2017-10-10T14:04:38.457Z,58.00
2017-10-10T14:07:06.043Z,58.00
2017-10-10T14:09:33.601Z,58.00
2017-10-10T14:12:01.191Z,58.00
2017-10-10T14:14:28.769Z,58.00
2017-10-10T14:16:56.357Z,58.00
2017-10-10T14:19:23.970Z,58.00
2017-10-10T14:21:51.539Z,58.00
2017-10-10T14:24:19.101Z,58.00
2017-10-10T14:26:46.710Z,58.00
2017-10-10T14:29:14.272Z,58.00
2017-10-10T14:31:41.850Z,58.00
2017-10-10T14:34:09.461Z,57.90
2017-10-10T14:36:37.033Z,57.90
2017-10-10T14:39:04.673Z,57.90
2017-10-10T14:41:32.285Z,57.90
2017-10-10T14:43:59.901Z,57.90
2017-10-10T14:46:27.462Z,57.90
2017-10-10T14:48:55.047Z,57.90
2017-10-10T14:51:22.633Z,57.90
2017-10-10T14:53:50.194Z,57.90
2017-10-10T14:56:17.801Z,57.90
2017-10-10T14:58:45.430Z,57.90
2017-10-10T15:01:13.013Z,57.90
2017-10-10T15:03:40.625Z,57.90
2017-10-10T15:06:08.209Z,57.90
2017-10-10T15:08:35.794Z,57.90
2017-10-10T15:11:03.405Z,57.90
2017-10-10T15:13:30.988Z,57.90
2017-10-10T15:15:58.579Z,57.90
2017-10-10T15:18:26.209Z,57.90
2017-10-10T15:20:53.793Z,57.90
2017-10-10T15:23:21.349Z,57.90
2017-10-10T15:25:48.928Z,57.90
2017-10-10T15:28:16.489Z,57.90
2017-10-10T15:30:44.065Z,57.90
2017-10-10T15:33:11.663Z,57.90
2017-10-10T15:35:39.217Z,57.90
2017-10-10T15:38:06.809Z,57.90
2017-10-10T15:40:34.775Z,57.90
2017-10-10T15:43:02.548Z,57.90
2017-10-10T15:45:30.157Z,57.90
2017-10-10T15:47:57.794Z,57.90
2017-10-10T15:50:25.373Z,57.90
2017-10-10T15:52:52.930Z,57.90
2017-10-10T15:55:20.539Z,57.90
2017-10-10T15:57:48.104Z,57.90
2017-10-10T16:00:15.667Z,57.90
2017-10-10T16:02:43.281Z,58.60
2017-10-10T16:05:10.850Z,57.90
2017-10-10T16:07:38.413Z,57.90
2017-10-10T16:10:06.001Z,57.90
2017-10-10T16:12:33.562Z,57.90
2017-10-10T16:15:01.133Z,57.90
2017-10-10T16:17:28.717Z,57.90
2017-10-10T16:19:56.277Z,57.90
2017-10-10T16:22:23.829Z,57.90
2017-10-10T16:24:51.429Z,57.90
2017-10-10T16:27:19.014Z,57.90
2017-10-10T16:29:46.585Z,57.90
2017-10-10T16:32:14.205Z,57.90
2017-10-10T16:34:41.817Z,57.90
2017-10-10T16:37:09.429Z,57.90
2017-10-10T16:39:37.033Z,57.90
2017-10-10T16:42:04.617Z,57.90
2017-10-10T16:44:32.960Z,57.90
2017-10-10T16:47:00.545Z,57.90
2017-10-10T16:49:28.117Z,57.90
2017-10-10T16:51:55.697Z,57.90
2017-10-10T16:54:23.285Z,57.90
2017-10-10T16:56:50.837Z,57.90
2017-10-10T16:59:18.414Z,57.90
2017-10-10T17:01:47.497Z,57.90
2017-10-10T17:04:15.054Z,58.00
2017-10-10T17:06:42.633Z,58.00
2017-10-10T17:09:10.265Z,57.90
2017-10-10T17:11:37.830Z,57.90
2017-10-10T17:14:05.415Z,57.90
2017-10-10T17:16:33.168Z,57.90
2017-10-10T17:19:00.736Z,57.90
2017-10-10T17:21:28.294Z,58.00
2017-10-10T17:23:55.910Z,57.90
2017-10-10T17:26:23.520Z,57.90
2017-10-10T17:28:51.084Z,57.90
2017-10-10T17:31:19.385Z,57.90
2017-10-10T17:33:46.965Z,57.90
2017-10-10T17:36:14.525Z,57.90
2017-10-10T17:38:42.877Z,58.00
2017-10-10T17:41:10.459Z,57.90
2017-10-10T17:43:38.048Z,57.90
2017-10-10T17:46:05.638Z,57.90
2017-10-10T17:48:33.229Z,57.90
2017-10-10T17:51:00.822Z,57.90
2017-10-10T17:53:28.443Z,57.90
2017-10-10T17:55:56.939Z,57.90
2017-10-10T17:58:24.565Z,57.90
2017-10-10T18:00:52.309Z,57.90
2017-10-10T18:03:20.633Z,57.90
2017-10-10T18:05:48.189Z,57.90
2017-10-10T18:08:15.824Z,58.00
2017-10-10T18:10:43.433Z,57.50
2017-10-10T18:13:10.993Z,58.00
2017-10-10T18:15:38.764Z,58.10
2017-10-10T18:18:06.322Z,58.10
2017-10-10T18:20:33.927Z,58.00
2017-10-10T18:23:01.514Z,58.10
2017-10-10T18:25:29.069Z,58.40
2017-10-10T18:27:56.625Z,58.20
2017-10-10T18:30:24.213Z,58.10
2017-10-10T18:32:51.794Z,58.20
2017-10-10T18:35:19.574Z,58.10
2017-10-10T18:37:47.329Z,58.10
2017-10-10T18:40:14.914Z,58.10
2017-10-10T18:42:42.505Z,58.20
2017-10-10T18:45:10.147Z,58.30
2017-10-10T18:47:40.886Z,58.40
2017-10-10T18:50:10.221Z,58.40
2017-10-10T18:52:37.830Z,58.40
2017-10-10T18:55:05.416Z,58.50
2017-10-10T18:57:33.094Z,58.40
2017-10-10T19:00:01.494Z,58.50
2017-10-10T19:02:30.398Z,58.40
2017-10-10T19:04:58.582Z,58.40
2017-10-10T19:07:26.323Z,58.50
2017-10-10T19:09:53.887Z,58.60
2017-10-10T19:12:21.463Z,58.60
2017-10-10T19:14:49.623Z,58.60
2017-10-10T19:17:17.206Z,58.60
2017-10-10T19:19:45.598Z,59.30
2017-10-10T19:22:13.390Z,58.60
2017-10-10T19:24:40.976Z,58.60
2017-10-10T19:27:08.561Z,58.60
2017-10-10T19:29:36.377Z,58.60
2017-10-10T19:32:05.095Z,58.70
2017-10-10T19:34:32.666Z,58.70
2017-10-10T19:37:00.263Z,58.90
2017-10-10T19:39:27.831Z,59.00
2017-10-10T19:41:55.391Z,59.10
2017-10-10T19:44:24.240Z,59.10
2017-10-10T19:46:52.702Z,59.40
2017-10-10T19:49:20.291Z,60.10
2017-10-10T19:51:49.007Z,59.60
2017-10-10T19:54:16.587Z,60.20
2017-10-10T19:56:44.180Z,59.70
2017-10-10T19:59:12.781Z,59.80
2017-10-10T20:01:40.371Z,59.80
2017-10-10T20:04:07.962Z,60.10
2017-10-10T20:06:35.842Z,60.20
2017-10-10T20:09:03.494Z,60.20
2017-10-10T20:11:31.813Z,60.30
2017-10-10T20:14:00.034Z,60.30
2017-10-10T20:16:28.558Z,60.40
2017-10-10T20:18:56.157Z,60.50
2017-10-10T20:21:23.761Z,60.60
2017-10-10T20:23:51.337Z,60.60
2017-10-10T20:26:18.930Z,60.60
2017-10-10T20:28:46.645Z,60.60
2017-10-10T20:31:14.429Z,60.50
2017-10-10T20:33:42.585Z,60.50
2017-10-10T20:36:10.199Z,61.20
2017-10-10T20:38:38.642Z,60.30
2017-10-10T20:41:06.225Z,60.10
2017-10-10T20:43:33.985Z,60.30
2017-10-10T20:46:01.579Z,60.30
2017-10-10T20:48:29.918Z,60.30
2017-10-10T20:50:58.246Z,60.30
2017-10-10T20:53:25.821Z,60.20
2017-10-10T20:55:53.402Z,60.30
2017-10-10T20:58:22.773Z,60.30
2017-10-10T21:00:50.366Z,60.20
2017-10-10T21:03:18.295Z,60.10
2017-10-10T21:05:46.658Z,60.30
2017-10-10T21:08:14.262Z,60.80
2017-10-10T21:10:41.875Z,62.60
2017-10-10T21:13:09.464Z,64.00
2017-10-10T21:15:37.075Z,64.20
2017-10-10T21:18:04.653Z,64.30
2017-10-10T21:20:32.265Z,64.40
2017-10-10T21:22:59.851Z,64.20
2017-10-10T21:25:27.429Z,64.90
2017-10-10T21:27:55.234Z,64.30
2017-10-10T21:30:22.823Z,64.10
2017-10-10T21:32:50.425Z,64.00
2017-10-10T21:35:18.822Z,64.20
2017-10-10T21:37:47.318Z,64.30
2017-10-10T21:40:15.701Z,64.60
2017-10-10T21:42:43.323Z,64.60
2017-10-10T21:45:11.664Z,64.70
2017-10-10T21:47:39.221Z,64.70
2017-10-10T21:50:06.805Z,64.50
2017-10-10T21:52:34.556Z,64.60
2017-10-10T21:55:02.174Z,64.80
2017-10-10T21:57:29.825Z,64.60
2017-10-10T21:59:57.394Z,64.80
2017-10-10T22:02:24.986Z,64.80
2017-10-10T22:04:52.578Z,64.80
2017-10-10T22:07:20.167Z,64.80
2017-10-10T22:09:49.182Z,64.80
2017-10-10T22:12:17.552Z,64.90
2017-10-10T22:14:45.121Z,65.00
2017-10-10T22:17:12.718Z,65.00
2017-10-10T22:19:40.346Z,64.80
2017-10-10T22:22:08.925Z,65.00
2017-10-10T22:24:36.493Z,65.10
2017-10-10T22:27:04.105Z,65.30
2017-10-10T22:29:31.685Z,65.30
2017-10-10T22:31:59.285Z,65.20
2017-10-10T22:34:26.897Z,65.30
2017-10-10T22:36:54.494Z,65.40
2017-10-10T22:39:22.065Z,64.90
2017-10-10T22:41:49.668Z,64.80
2017-10-10T22:44:17.233Z,64.60
2017-10-10T22:46:44.794Z,64.60
2017-10-10T22:49:12.420Z,65.10
2017-10-10T22:51:39.993Z,65.30
2017-10-10T22:54:07.557Z,65.20
2017-10-10T22:56:35.193Z,65.30
2017-10-10T22:59:02.758Z,65.60
2017-10-10T23:01:30.319Z,65.50
2017-10-10T23:03:57.917Z,65.40
2017-10-10T23:06:25.509Z,65.30
2017-10-10T23:08:53.096Z,64.80
2017-10-10T23:11:20.701Z,64.60
2017-10-10T23:13:48.865Z,64.90
2017-10-10T23:16:27.877Z,64.90
2017-10-10T23:18:55.529Z,65.10
2017-10-10T23:21:23.117Z,65.60
2017-10-10T23:23:50.697Z,65.70
2017-10-10T23:26:22.000Z,66.10
2017-10-10T23:28:49.634Z,65.80
2017-10-10T23:31:17.221Z,66.00
2017-10-10T23:33:44.809Z,66.20
2017-10-10T23:36:12.369Z,66.10
2017-10-10T23:38:40.161Z,66.20
2017-10-10T23:41:07.782Z,66.30
2017-10-10T23:43:35.346Z,66.30
2017-10-10T23:46:02.915Z,66.30
2017-10-10T23:48:30.497Z,66.20
2017-10-10T23:50:58.054Z,66.10
2017-10-10T23:53:25.621Z,66.60
2017-10-10T23:55:53.353Z,66.60
2017-10-10T23:58:20.909Z,66.80
